Time;durP1;ratioP1;P1;durP2;ratioP2;P2;SDS_P1;SDS_P2;PMS_P1;PMS_P2;Temp;Humidity;BMP_temperature;BMP_pressure;BME280_temperature;BME280_humidity;BME280_pressure;Samples;Min_cycle;Max_cycle;Signal;HPM_P1;HPM_P2
2022/07/30 00:00:30;;;;;;;9.00;7.80;;;;;;;21.57;78.07;101163.34;105472;1285;73767;-78
2022/07/30 00:03:06;;;;;;;14.30;8.40;;;;;;;21.52;78.59;101163.69;105330;1286;72901;-80
2022/07/30 00:05:35;;;;;;;10.90;8.30;;;;;;;21.50;78.82;101162.51;105227;1286;70354;-81
2022/07/30 00:08:04;;;;;;;9.80;8.70;;;;;;;21.45;79.36;101164.11;105342;1285;74624;-79
2022/07/30 00:10:33;;;;;;;10.60;8.50;;;;;;;21.43;79.16;101164.02;105292;1285;58827;-80
2022/07/30 00:13:02;;;;;;;10.00;7.90;;;;;;;21.45;79.10;101163.27;105231;1287;59283;-79
2022/07/30 00:15:31;;;;;;;10.10;7.60;;;;;;;21.42;79.44;101161.83;105092;1287;63030;-79
2022/07/30 00:18:00;;;;;;;8.80;7.90;;;;;;;21.39;79.75;101158.73;105366;1287;60961;-79
2022/07/30 00:20:29;;;;;;;10.90;8.00;;;;;;;21.36;79.77;101156.98;105320;1286;69997;-81
2022/07/30 00:23:04;;;;;;;9.60;7.40;;;;;;;21.32;80.21;101148.36;105173;1286;73653;-79
2022/07/30 00:25:33;;;;;;;14.00;8.40;;;;;;;21.29;80.08;101141.96;105149;1286;58382;-79
2022/07/30 00:28:02;;;;;;;10.00;8.30;;;;;;;21.27;80.13;101135.50;105102;1286;60608;-80
2022/07/30 00:30:32;;;;;;;13.40;8.10;;;;;;;21.23;80.06;101131.73;105826;1285;64828;-79
2022/07/30 00:33:01;;;;;;;8.80;7.90;;;;;;;21.16;80.22;101124.95;105113;1287;61161;-79
2022/07/30 00:35:30;;;;;;;10.90;8.10;;;;;;;21.13;80.17;101125.66;105024;1285;62041;-80
2022/07/30 00:37:59;;;;;;;9.10;7.70;;;;;;;21.06;80.16;101118.98;105332;1285;65279;-78
2022/07/30 00:40:28;;;;;;;10.20;8.40;;;;;;;21.06;80.41;101115.78;105119;1286;62349;-79
2022/07/30 00:42:57;;;;;;;9.30;7.70;;;;;;;21.05;80.43;101116.16;105483;1284;60565;-80
2022/07/30 00:45:26;;;;;;;9.30;8.00;;;;;;;21.00;80.44;101119.39;105380;1284;74929;-79
2022/07/30 00:47:57;;;;;;;10.00;8.20;;;;;;;20.94;80.60;101118.20;105440;1284;72911;-79
2022/07/30 00:50:26;;;;;;;9.70;7.30;;;;;;;20.94;80.65;101115.25;105546;1284;70889;-80
2022/07/30 00:52:55;;;;;;;11.60;8.90;;;;;;;20.93;80.39;101111.07;105425;1284;74400;-80
2022/07/30 00:55:25;;;;;;;10.30;8.50;;;;;;;20.93;80.84;101114.83;105348;1285;62531;-78
2022/07/30 00:57:54;;;;;;;10.10;8.40;;;;;;;20.85;81.53;101118.84;105325;1284;61428;-81
2022/07/30 01:00:24;;;;;;;12.50;8.80;;;;;;;20.88;81.12;101117.79;105311;1285;72734;-75
2022/07/30 01:02:53;;;;;;;11.60;8.90;;;;;;;20.90;81.53;101118.14;105491;1285;71490;-79
2022/07/30 01:05:22;;;;;;;10.70;8.10;;;;;;;20.89;80.13;101120.37;105298;1284;69265;-79
2022/07/30 01:07:51;;;;;;;11.10;7.60;;;;;;;20.78;81.33;101123.53;105199;1285;74689;-83
2022/07/30 01:10:20;;;;;;;10.50;8.50;;;;;;;20.72;82.11;101127.75;104957;1285;62055;-81
2022/07/30 01:12:51;;;;;;;10.10;7.80;;;;;;;20.67;82.24;101123.68;105928;1284;61721;-80
2022/07/30 01:15:21;;;;;;;11.00;8.60;;;;;;;20.62;82.63;101120.52;105392;1285;63989;-79
2022/07/30 01:17:53;;;;;;;10.40;8.60;;;;;;;20.59;82.77;101119.61;106112;1285;72190;-80
2022/07/30 01:20:52;;;;;;;10.20;8.00;;;;;;;20.59;83.13;101123.45;105514;1285;70712;-81
2022/07/30 01:23:37;;;;;;;11.50;7.90;;;;;;;20.58;83.15;101124.61;105012;1287;63148;-78
2022/07/30 01:26:16;;;;;;;11.50;8.00;;;;;;;20.60;82.89;101131.35;105193;1284;58914;-79
2022/07/30 01:28:51;;;;;;;13.10;7.80;;;;;;;20.58;83.07;101137.78;105171;1285;61418;-80
2022/07/30 01:31:24;;;;;;;8.80;7.30;;;;;;;20.51;82.42;101137.98;105055;1285;73991;-79
2022/07/30 01:33:55;;;;;;;10.30;6.90;;;;;;;20.40;83.36;101136.67;105042;1285;72506;-78
2022/07/30 01:36:28;;;;;;;10.10;7.80;;;;;;;20.33;83.03;101140.67;105128;1286;60005;-80
2022/07/30 01:39:00;;;;;;;10.00;7.40;;;;;;;20.29;83.95;101141.00;105183;1285;63438;-80
2022/07/30 01:41:30;;;;;;;10.60;7.30;;;;;;;20.27;84.35;101138.95;105160;1286;57822;-80
2022/07/30 01:44:02;;;;;;;8.30;7.30;;;;;;;20.24;84.70;101139.02;105316;1285;60508;-80
2022/07/30 01:46:32;;;;;;;8.30;6.70;;;;;;;20.20;84.82;101131.50;105215;1285;72915;-81
2022/07/30 01:49:03;;;;;;;9.60;7.00;;;;;;;20.19;84.81;101126.70;105002;1286;61901;-81
2022/07/30 01:51:35;;;;;;;8.00;6.90;;;;;;;20.25;84.29;101123.16;105809;1284;70075;-82
2022/07/30 01:54:09;;;;;;;8.80;6.70;;;;;;;20.36;83.76;101120.65;105288;1285;62487;-78
2022/07/30 01:56:41;;;;;;;10.00;7.30;;;;;;;20.43;83.93;101120.56;105213;1286;62413;-79
2022/07/30 01:59:13;;;;;;;9.00;7.40;;;;;;;20.46;83.91;101121.34;105374;1286;59289;-79
2022/07/30 02:01:42;;;;;;;11.30;8.00;;;;;;;20.50;83.58;101121.12;105433;1288;62232;-79
2022/07/30 02:04:11;;;;;;;10.50;8.40;;;;;;;20.52;83.91;101119.95;105406;1286;72937;-81
2022/07/30 02:06:56;;;;;;;10.80;8.50;;;;;;;20.55;83.37;101122.67;105453;1285;59184;-79
2022/07/30 02:09:40;;;;;;;12.50;8.40;;;;;;;20.55;83.32;101126.77;105595;1285;63429;-80
2022/07/30 02:12:30;;;;;;;11.30;8.60;;;;;;;20.53;83.40;101122.84;105414;1285;64214;-79
2022/07/30 02:15:36;;;;;;;10.40;8.30;;;;;;;20.51;83.57;101124.89;105623;1286;58478;-80
2022/07/30 02:18:17;;;;;;;;;;;;;;;20.54;83.14;101123.15;105662;1285;62319;-81
2022/07/30 02:21:00;;;;;;;15.70;10.60;;;;;;;20.59;83.15;101124.35;105479;1286;70827;-79
2022/07/30 02:23:39;;;;;;;11.20;9.40;;;;;;;20.57;83.34;101132.70;105329;1285;71255;-80
2022/07/30 02:26:17;;;;;;;13.60;10.20;;;;;;;20.60;83.22;101132.17;105486;1285;63197;-80
2022/07/30 02:28:52;;;;;;;12.20;9.20;;;;;;;20.63;82.90;101129.87;105716;1285;59984;-74
2022/07/30 02:31:26;;;;;;;12.00;9.80;;;;;;;20.66;82.64;101124.51;105350;1286;58344;-79
2022/07/30 02:33:59;;;;;;;11.00;8.90;;;;;;;20.68;82.49;101124.83;105191;1286;63161;-79
2022/07/30 02:36:31;;;;;;;12.40;10.10;;;;;;;20.69;82.24;101123.30;105440;1286;60996;-79
2022/07/30 02:39:03;;;;;;;16.90;10.90;;;;;;;20.72;81.97;101117.50;105383;1285;59285;-79
2022/07/30 02:41:37;;;;;;;10.80;9.60;;;;;;;20.75;81.90;101120.79;105265;1288;62856;-79
2022/07/30 02:44:09;;;;;;;13.60;10.00;;;;;;;20.77;81.70;101119.89;105536;1285;57993;-80
2022/07/30 02:46:40;;;;;;;13.40;9.80;;;;;;;20.74;81.99;101117.89;105921;1285;57752;-80
2022/07/30 02:49:23;;;;;;;15.00;10.20;;;;;;;20.66;82.44;101120.91;106144;1285;62319;-82
2022/07/30 02:51:55;;;;;;;11.20;10.00;;;;;;;20.58;82.75;101122.11;105862;1285;71542;-81
2022/07/30 02:54:25;;;;;;;11.30;9.20;;;;;;;20.54;82.72;101124.38;105434;1285;70422;-81
2022/07/30 02:56:58;;;;;;;10.60;9.10;;;;;;;20.53;82.48;101119.66;105568;1285;73994;-81
2022/07/30 02:59:30;;;;;;;13.70;9.40;;;;;;;20.50;82.53;101117.05;105936;1284;60477;-80
2022/07/30 03:02:00;;;;;;;12.50;9.90;;;;;;;20.48;82.65;101115.48;105859;1285;58076;-81
2022/07/30 03:04:34;;;;;;;13.40;10.20;;;;;;;20.43;82.89;101104.88;105922;1285;73048;-82
2022/07/30 03:07:07;;;;;;;13.60;10.10;;;;;;;20.42;82.86;101104.40;106083;1285;60868;-82
2022/07/30 03:09:41;;;;;;;14.20;10.00;;;;;;;20.42;82.81;101104.27;105382;1286;67393;-81
2022/07/30 03:12:21;;;;;;;12.00;9.20;;;;;;;20.43;82.71;101106.10;105624;1285;62709;-79
2022/07/30 03:14:51;;;;;;;11.10;9.70;;;;;;;20.47;82.45;101107.45;105528;1287;62808;-80
2022/07/30 03:17:24;;;;;;;12.10;10.00;;;;;;;20.46;82.66;101112.08;105774;1286;57545;-76
2022/07/30 03:19:56;;;;;;;13.50;10.10;;;;;;;20.45;82.62;101111.52;105774;1285;62798;-80
2022/07/30 03:22:26;;;;;;;14.20;9.60;;;;;;;20.35;82.82;101113.95;105594;1285;72801;-81
2022/07/30 03:25:04;;;;;;;10.70;9.20;;;;;;;20.40;82.50;101115.08;105520;1286;69687;-82
2022/07/30 03:27:38;;;;;;;11.30;9.30;;;;;;;20.43;82.62;101114.42;105541;1287;63273;-79
2022/07/30 03:30:11;;;;;;;11.50;9.00;;;;;;;20.45;82.44;101116.09;105737;1285;60704;-80
2022/07/30 03:32:42;;;;;;;13.40;9.70;;;;;;;20.42;82.68;101117.54;105324;1285;59223;-80
2022/07/30 03:35:13;;;;;;;10.90;9.30;;;;;;;20.42;82.37;101120.48;105221;1285;73899;-80
2022/07/30 03:37:46;;;;;;;13.00;9.90;;;;;;;20.47;82.00;101116.23;105397;1284;71559;-79
2022/07/30 03:40:17;;;;;;;11.40;9.20;;;;;;;20.54;81.51;101120.13;105330;1285;60680;-79
2022/07/30 03:42:48;;;;;;;12.30;9.90;;;;;;;20.60;81.56;101119.27;105382;1285;62725;-80
2022/07/30 03:45:20;;;;;;;12.10;9.70;;;;;;;20.65;81.75;101117.01;105442;1285;57742;-78
2022/07/30 03:47:52;;;;;;;12.00;9.80;;;;;;;20.66;81.96;101116.67;105992;1285;62291;-74
2022/07/30 03:50:21;;;;;;;12.10;9.90;;;;;;;20.69;82.02;101114.05;105556;1285;62261;-81
2022/07/30 03:52:54;;;;;;;12.60;9.60;;;;;;;20.77;81.51;101114.08;105907;1285;72057;-76
2022/07/30 03:55:24;;;;;;;13.10;9.10;;;;;;;20.81;81.36;101113.77;105905;1286;61152;-83
2022/07/30 03:58:13;;;;;;;13.10;11.80;;;;;;;20.93;80.72;101110.17;105820;1285;62614;-81
2022/07/30 04:00:47;;;;;;;12.30;9.80;;;;;;;21.06;80.01;101112.96;105739;1285;60483;-81
2022/07/30 04:03:29;;;;;;;18.60;9.70;;;;;;;21.10;80.09;101111.86;105691;1285;62510;-81
2022/07/30 04:06:03;;;;;;;14.80;9.00;;;;;;;21.18;79.41;101112.41;105873;1285;73756;-81
2022/07/30 04:08:32;;;;;;;12.70;9.10;;;;;;;21.25;79.06;101111.79;105547;1287;61042;-79
2022/07/30 04:11:03;;;;;;;18.20;10.60;;;;;;;21.28;78.62;101109.63;105443;1287;70484;-81
2022/07/30 04:13:31;;;;;;;13.30;9.10;;;;;;;21.32;78.39;101106.54;105779;1286;74192;-80
2022/07/30 04:16:10;;;;;;;12.80;9.10;;;;;;;21.44;77.71;101104.59;105649;1287;62462;-78
2022/07/30 04:19:03;;;;;;;11.50;8.00;;;;;;;21.55;76.97;101099.58;105760;1286;61141;-81
2022/07/30 04:21:34;;;;;;;14.10;8.40;;;;;;;21.73;76.08;101096.08;105770;1286;73315;-81
2022/07/30 04:24:04;;;;;;;10.40;7.70;;;;;;;21.85;75.56;101101.45;105608;1286;72553;-80
2022/07/30 04:26:36;;;;;;;10.90;9.20;;;;;;;21.87;75.24;101105.86;105697;1286;69960;-78
2022/07/30 04:29:09;;;;;;;11.20;9.00;;;;;;;21.95;75.00;101105.27;105639;1286;63458;-79
2022/07/30 04:31:45;;;;;;;12.60;8.60;;;;;;;22.07;74.61;101104.60;105849;1288;57526;-81
2022/07/30 04:34:33;;;;;;;13.50;9.00;;;;;;;22.18;74.28;101102.48;105958;1286;58154;-81
2022/07/30 04:37:03;;;;;;;10.50;8.50;;;;;;;22.33;73.67;101103.27;105707;1286;73048;-80
2022/07/30 04:39:32;;;;;;;10.30;9.10;;;;;;;22.32;73.63;101106.39;105654;1286;61677;-80
2022/07/30 04:42:01;;;;;;;14.10;9.50;;;;;;;22.26;73.59;101105.44;106016;1285;59451;-79
2022/07/30 04:44:37;;;;;;;11.50;9.30;;;;;;;22.28;73.67;101103.63;105772;1287;62750;-82
2022/07/30 04:47:55;;;;;;;13.80;9.30;;;;;;;22.48;72.95;101101.31;106170;1288;62209;-79
2022/07/30 04:50:42;;;;;;;;;;;;;;;22.59;71.05;101098.29;106149;1286;59114;-80
2022/07/30 04:53:13;;;;;;;9.50;8.00;;;;;;;22.75;69.55;101097.11;105971;1285;62222;-80
2022/07/30 04:55:50;;;;;;;13.30;7.80;;;;;;;22.87;68.67;101098.39;105791;1285;69910;-80
2022/07/30 04:58:22;;;;;;;8.40;7.20;;;;;;;22.92;67.40;101102.30;105817;1285;70627;-80
2022/07/30 05:00:58;;;;;;;10.00;7.00;;;;;;;22.92;66.50;101106.31;105975;1285;74193;-82
2022/07/30 05:03:30;;;;;;;11.00;7.30;;;;;;;23.08;66.75;101109.41;106122;1285;60904;-81
2022/07/30 05:06:02;;;;;;;11.00;7.60;;;;;;;23.14;66.62;101108.88;106086;1285;60591;-77
2022/07/30 05:08:34;;;;;;;10.50;7.00;;;;;;;23.18;65.62;101108.90;106229;1285;71866;-83
2022/07/30 05:11:05;;;;;;;7.90;6.30;;;;;;;23.25;64.76;101107.77;106149;1285;71591;-81
2022/07/30 05:13:35;;;;;;;10.00;7.20;;;;;;;23.27;64.66;101107.79;106158;1285;69842;-80
2022/07/30 05:16:10;;;;;;;14.60;7.10;;;;;;;23.33;63.86;101103.89;106195;1285;73752;-81
2022/07/30 05:18:41;;;;;;;7.50;5.60;;;;;;;23.34;63.04;101100.67;106227;1285;59176;-81
2022/07/30 05:21:11;;;;;;;7.70;6.50;;;;;;;23.32;62.67;101099.17;106212;1285;60848;-80
2022/07/30 05:23:48;;;;;;;11.70;6.30;;;;;;;23.26;62.42;101101.27;106429;1285;72897;-81
2022/07/30 05:26:36;;;;;;;11.00;6.10;;;;;;;23.42;61.79;101104.34;106202;1285;61491;-82
2022/07/30 05:29:06;;;;;;;6.60;5.20;;;;;;;23.45;60.60;101103.06;106097;1285;59436;-81
2022/07/30 05:31:45;;;;;;;6.80;4.70;;;;;;;23.44;59.68;101104.95;106436;1285;62832;-81
2022/07/30 05:34:17;;;;;;;6.60;4.60;;;;;;;23.53;59.35;101109.07;106351;1285;58880;-82
2022/07/30 05:36:46;;;;;;;7.80;4.40;;;;;;;23.58;58.46;101105.65;106289;1286;60508;-81
2022/07/30 05:39:17;;;;;;;8.00;4.10;;;;;;;23.57;58.15;101109.09;106143;1285;73631;-82
2022/07/30 05:42:41;;;;;;;9.70;4.00;;;;;;;23.36;57.43;101105.59;105895;1289;60846;-82
2022/07/30 05:45:10;;;;;;;7.90;4.20;;;;;;;23.33;57.88;101107.23;106215;1285;60565;-82
2022/07/30 05:47:39;;;;;;;5.40;3.90;;;;;;;23.47;57.71;101113.28;106418;1285;62542;-81
2022/07/30 05:50:08;;;;;;;6.90;3.50;;;;;;;23.57;57.55;101114.92;106015;1286;57897;-79
2022/07/30 05:52:37;;;;;;;5.10;3.60;;;;;;;23.73;57.09;101111.25;106361;1285;59549;-79
2022/07/30 05:55:19;;;;;;;7.30;4.00;;;;;;;23.62;57.11;101120.07;106396;1285;62258;-79
2022/07/30 05:57:55;;;;;;;8.10;4.30;;;;;;;23.69;57.24;101117.10;106313;1286;71829;-80
2022/07/30 06:00:24;;;;;;;7.80;4.60;;;;;;;23.68;57.22;101117.61;106702;1285;59161;-81
2022/07/30 06:03:17;;;;;;;6.40;4.40;;;;;;;23.61;57.04;101118.34;106891;1275;62580;31
2022/07/30 06:05:55;;;;;;;9.10;5.30;;;;;;;23.62;57.07;101121.85;107018;1276;58244;-84
2022/07/30 06:08:24;;;;;;;7.10;3.90;;;;;;;23.66;56.42;101119.36;107074;1283;59600;-83
2022/07/30 06:14:58;;;;;;;4.90;3.70;;;;;;;23.37;54.79;101103.54;107349;1274;70942;31
2022/07/30 06:17:31;;;;;;;6.30;4.00;;;;;;;23.46;55.08;101120.35;106900;1278;59837;-83
2022/07/30 06:20:52;;;;;;;7.50;4.10;;;;;;;23.54;54.84;101115.04;107078;1275;73806;31
2022/07/30 06:23:30;;;;;;;6.90;3.80;;;;;;;23.83;54.62;101119.08;106899;1284;61360;-83
2022/07/30 06:26:02;;;;;;;5.80;4.20;;;;;;;23.92;53.89;101119.45;106705;1284;58715;-83
2022/07/30 06:28:31;;;;;;;9.10;4.00;;;;;;;24.11;53.53;101123.35;106761;1285;63260;-83
2022/07/30 06:36:25;;;;;;;5.90;4.00;;;;;;;24.25;52.93;101105.02;106903;1275;69065;-79
2022/07/30 06:39:58;;;;;;;7.20;3.90;;;;;;;24.44;52.57;101106.73;107002;1274;62780;31
2022/07/30 06:42:28;;;;;;;5.70;3.40;;;;;;;24.46;52.27;101106.18;106975;1284;57716;-84
2022/07/30 06:45:43;;;;;;;6.10;3.70;;;;;;;24.45;52.25;101109.00;106949;1275;58888;-83
2022/07/30 06:48:24;;;;;;;6.00;3.70;;;;;;;24.62;51.41;101104.89;106903;1283;62353;-83
2022/07/30 06:55:56;;;;;;;8.90;3.60;;;;;;;24.31;51.49;101104.07;107102;1273;59465;31
2022/07/30 07:00:02;;;;;;;6.50;3.30;;;;;;;24.17;51.90;101099.23;107123;1272;63763;31
2022/07/30 07:06:31;;;;;;;8.10;4.00;;;;;;;24.49;50.86;101100.49;107116;1272;61007;-82
2022/07/30 07:09:01;;;;;;;4.50;3.20;;;;;;;24.60;50.99;101104.81;107051;1282;64945;-84
2022/07/30 07:13:04;;;;;;;5.60;3.80;;;;;;;24.54;51.40;101102.73;105112;1272;58565;31
2022/07/30 07:15:35;;;;;;;8.10;3.80;;;;;;;24.72;51.11;101101.80;106934;1284;59969;-82
2022/07/30 07:18:08;;;;;;;8.00;4.10;;;;;;;24.83;50.84;101093.81;106637;1287;73430;-83
2022/07/30 07:40:54;;;;;;;6.10;3.50;;;;;;;26.47;46.78;101087.12;97858;1275;954213;31
2022/07/30 08:07:23;;;;;;;5.00;3.30;;;;;;;27.54;45.22;101080.82;105637;1275;58057;-83
2022/07/30 08:38:27;;;;;;;6.40;3.10;;;;;;;27.84;43.65;101053.72;105920;1272;62290;31
2022/07/30 08:48:52;;;;;;;6.60;4.50;;;;;;;28.67;42.14;101043.77;107077;1275;63944;-83
2022/07/30 08:51:23;;;;;;;6.20;3.70;;;;;;;28.88;41.80;101033.82;107146;1275;58200;-83
2022/07/30 09:02:26;;;;;;;5.60;3.30;;;;;;;29.41;40.52;101027.18;101235;1272;59446;31
2022/07/30 09:09:46;;;;;;;5.80;3.60;;;;;;;30.02;39.33;101015.59;97371;1272;64008;31
2022/07/30 09:12:48;;;;;;;9.00;3.60;;;;;;;29.94;39.94;101019.48;106854;1276;61831;-83
2022/07/30 09:35:39;;;;;;;4.00;3.10;;;;;;;30.16;39.55;100998.70;107173;1273;58574;31
2022/07/30 09:38:14;;;;;;;4.30;3.20;;;;;;;30.60;39.02;101007.23;107137;1272;61155;-85
2022/07/30 09:53:07;;;;;;;4.90;3.70;;;;;;;30.20;40.89;101000.63;104451;1273;65267;-85
2022/07/30 09:56:28;;;;;;;5.90;3.60;;;;;;;30.28;40.99;101006.46;107120;1275;59865;31
2022/07/30 09:59:00;;;;;;;7.10;4.10;;;;;;;30.71;39.90;101000.92;106829;1275;59842;-81
2022/07/30 10:01:57;;;;;;;4.90;3.30;;;;;;;30.39;40.02;100998.21;107032;1273;75823;31
2022/07/30 10:12:51;;;;;;;4.10;3.60;;;;;;;29.49;42.66;101000.70;106913;1285;71751;-84
2022/07/30 10:27:59;;;;;;;5.20;4.20;;;;;;;29.65;43.01;100988.36;107110;1275;60488;31
2022/07/30 10:30:35;;;;;;;4.80;4.00;;;;;;;30.04;42.26;100982.40;106810;1275;70470;-82
2022/07/30 10:33:11;;;;;;;6.70;3.80;;;;;;;30.47;41.76;100977.92;106791;1283;72439;-84
2022/07/30 10:36:00;;;;;;;5.30;4.00;;;;;;;30.79;40.90;100975.10;106998;1283;60663;-83
2022/07/30 10:38:37;;;;;;;5.70;4.00;;;;;;;30.55;41.34;100970.84;106995;1283;59645;-83
2022/07/30 10:42:09;;;;;;;4.00;3.50;;;;;;;29.99;41.77;100967.90;107122;1275;73679;-83
2022/07/30 10:52:49;;;;;;;5.50;4.30;;;;;;;30.45;41.32;100942.04;99882;1286;73010;-82
2022/07/30 10:55:27;;;;;;;6.40;3.80;;;;;;;30.23;41.08;100939.11;106307;1286;57837;-81
2022/07/30 10:59:16;;;;;;;8.20;5.30;;;;;;;30.47;40.96;100933.70;106602;1275;57711;31
2022/07/30 11:05:50;;;;;;;4.10;3.60;;;;;;;31.02;39.32;100918.52;102026;1273;68881;-81
2022/07/30 11:08:44;;;;;;;3.40;3.10;;;;;;;31.13;39.27;100918.38;106944;1275;68842;-83
2022/07/30 11:11:36;;;;;;;4.60;3.70;;;;;;;30.88;39.52;100910.79;106973;1275;63616;31
2022/07/30 11:21:19;;;;;;;9.10;3.80;;;;;;;29.94;42.06;100896.79;107176;1273;74736;-81
2022/07/30 11:23:49;;;;;;;4.50;3.70;;;;;;;30.10;41.88;100895.40;107225;1273;71532;-83
2022/07/30 11:26:45;;;;;;;5.60;3.90;;;;;;;29.99;41.35;100890.45;106925;1274;69861;-83
2022/07/30 11:29:47;;;;;;;6.80;3.80;;;;;;;30.40;40.61;100885.75;107078;1273;73468;31
2022/07/30 11:32:33;;;;;;;6.00;4.20;;;;;;;30.69;39.20;100843.23;105368;1279;60814;-82
2022/07/30 11:35:28;;;;;;;5.00;3.70;;;;;;;31.27;38.22;100881.31;106906;1275;57348;-82
2022/07/30 11:38:07;;;;;;;5.90;3.50;;;;;;;31.64;37.89;100875.70;106865;1282;62389;-83
2022/07/30 11:41:05;;;;;;;7.00;4.10;;;;;;;31.67;37.87;100866.79;106946;1275;71715;31
2022/07/30 11:44:45;;;;;;;5.40;3.50;;;;;;;31.23;38.38;100866.60;106896;1273;60625;31
2022/07/30 11:47:15;;;;;;;5.30;3.90;;;;;;;31.60;37.65;100855.30;106717;1284;73483;-84
2022/07/30 11:50:37;;;;;;;7.40;3.80;;;;;;;30.92;39.51;100851.48;106836;1275;58036;31
2022/07/30 11:53:16;;;;;;;8.10;4.40;;;;;;;31.22;39.54;100851.59;106900;1275;58749;-84
2022/07/30 11:55:56;;;;;;;6.90;4.20;;;;;;;31.84;38.85;100854.31;107072;1275;62632;-83
2022/07/30 11:58:36;;;;;;;4.70;4.30;;;;;;;32.64;37.79;100855.73;107161;1275;72522;-82
2022/07/30 12:05:15;;;;;;;4.50;3.90;;;;;;;31.22;40.97;100859.48;106955;1275;73390;-83
2022/07/30 12:07:44;;;;;;;7.00;4.10;;;;;;;31.11;41.07;100852.85;106933;1274;57566;-82
2022/07/30 12:10:19;;;;;;;6.70;4.00;;;;;;;31.24;41.03;100848.93;106859;1276;58014;-82
2022/07/30 12:13:16;;;;;;;6.20;4.10;;;;;;;30.76;42.24;100849.65;106710;1277;63216;-80
2022/07/30 12:15:48;;;;;;;5.80;3.90;;;;;;;30.60;42.92;100845.95;106781;1285;71670;-82
2022/07/30 12:18:29;;;;;;;6.10;3.90;;;;;;;30.67;42.47;100844.96;106783;1275;60042;-82
2022/07/30 12:21:08;;;;;;;4.90;3.80;;;;;;;30.66;42.58;100842.83;106809;1285;62657;-84
2022/07/30 12:23:57;;;;;;;5.40;4.50;;;;;;;30.40;43.31;100835.90;106879;1276;59708;-83
2022/07/30 12:26:33;;;;;;;7.60;4.50;;;;;;;30.77;42.48;100837.84;106900;1284;61004;-83
2022/07/30 12:29:47;;;;;;;4.50;4.10;;;;;;;30.75;42.65;100835.92;106757;1276;63656;31
2022/07/30 12:32:20;;;;;;;6.10;4.30;;;;;;;30.57;42.59;100834.27;106909;1275;61193;-84
2022/07/30 12:35:02;;;;;;;6.80;4.10;;;;;;;30.75;42.63;100836.77;106974;1283;69923;-82
2022/07/30 12:37:37;;;;;;;5.30;3.70;;;;;;;30.94;42.66;100837.46;106761;1275;64638;-82
2022/07/30 12:40:17;;;;;;;6.80;4.00;;;;;;;31.36;41.49;100835.33;107045;1275;59692;-82
2022/07/30 12:46:59;;;;;;;5.30;3.70;;;;;;;31.38;41.01;100815.31;107113;1275;64099;-82
2022/07/30 12:49:35;;;;;;;5.70;3.30;;;;;;;31.67;39.23;100825.66;106513;1284;71730;-84
2022/07/30 12:52:28;;;;;;;5.40;3.60;;;;;;;31.48;38.75;100820.09;106903;1275;59298;-82
2022/07/30 12:58:58;;;;;;;4.70;3.60;;;;;;;31.41;38.65;100807.60;103963;1273;62602;31
2022/07/30 13:05:00;;;;;;;5.00;3.70;;;;;;;31.29;38.44;100791.02;103040;1275;72790;-82
2022/07/30 13:07:57;;;;;;;5.70;4.10;;;;;;;31.30;38.32;100788.91;106856;1276;61441;-82
2022/07/30 13:10:27;;;;;;;6.10;3.70;;;;;;;31.38;37.47;100748.17;106992;1282;72298;-81
2022/07/30 13:13:01;;;;;;;5.90;4.10;;;;;;;31.48;37.50;100782.55;106908;1282;73361;-82
2022/07/30 13:15:30;;;;;;;4.50;3.70;;;;;;;31.82;36.94;100772.08;106379;1285;61078;-79
2022/07/30 13:17:58;;;;;;;5.90;3.80;;;;;;;32.08;36.59;100765.35;106789;1284;60931;-82
2022/07/30 13:20:27;;;;;;;6.00;3.80;;;;;;;31.94;36.63;100761.71;106778;1282;62172;-80
2022/07/30 13:22:57;;;;;;;6.70;3.90;;;;;;;32.24;36.49;100757.82;106480;1285;60982;-81
2022/07/30 13:25:29;;;;;;;6.80;4.20;;;;;;;32.31;36.21;100754.11;106649;1284;60040;-80
2022/07/30 13:32:09;;;;;;;5.90;3.80;;;;;;;32.48;35.74;100750.58;106801;1276;59085;-82
2022/07/30 13:38:34;;;;;;;8.10;3.80;;;;;;;32.92;35.16;100743.61;106932;1276;64182;-83
2022/07/30 13:45:47;;;;;;;;;;;;;;;33.41;33.80;100746.83;107241;1275;59251;31
2022/07/30 14:07:39;;;;;;;4.70;3.70;;;;;;;33.67;31.81;100734.79;106651;1287;59712;-82
2022/07/30 14:15:16;;;;;;;3.80;3.10;;;;;;;34.73;30.51;100723.77;107132;1278;59158;-76
2022/07/30 14:21:39;;;;;;;4.20;3.10;;;;;;;34.00;30.90;100712.71;107027;1274;63938;-81
2022/07/30 14:45:49;;;;;;;4.80;3.70;;;;;;;31.67;34.53;100703.61;109798;1241;525325;31
2022/07/30 14:49:04;;;;;;;5.70;4.00;;;;;;;31.31;34.36;100685.16;111197;1233;59243;31
2022/07/30 14:51:52;;;;;;;4.30;3.90;;;;;;;31.24;34.56;100689.95;111055;1233;72978;31
2022/07/30 14:55:33;;;;;;;6.70;3.80;;;;;;;31.22;34.80;100702.40;111132;1233;62781;31
2022/07/30 14:58:01;;;;;;;5.70;3.90;;;;;;;31.20;35.11;100690.83;110946;1237;69081;-85
2022/07/30 15:05:01;;;;;;;7.00;3.90;;;;;;;31.14;35.10;100692.23;111103;1233;60961;31
2022/07/30 15:11:15;;;;;;;5.80;3.90;;;;;;;30.50;36.23;100685.07;111056;1230;71334;31
2022/07/30 15:13:45;;;;;;;5.70;4.00;;;;;;;30.50;36.24;100671.70;111480;1231;70680;-82
2022/07/30 15:16:18;;;;;;;4.60;3.60;;;;;;;30.76;35.97;100692.38;111389;1231;59659;-80
2022/07/30 15:18:46;;;;;;;5.10;4.30;;;;;;;30.90;35.45;100695.36;110933;1231;72520;-80
2022/07/30 15:21:14;;;;;;;7.70;3.80;;;;;;;30.72;36.07;100696.67;111438;1230;61033;-78
2022/07/30 15:23:41;;;;;;;5.80;3.90;;;;;;;30.61;36.62;100699.44;111212;1230;61294;-83
2022/07/30 15:26:12;;;;;;;8.50;5.90;;;;;;;30.64;36.68;100697.30;111547;1231;61233;-80
2022/07/30 15:28:39;;;;;;;6.90;4.70;;;;;;;30.67;36.75;100696.09;110811;1231;61266;-82
2022/07/30 15:35:33;;;;;;;6.10;4.30;;;;;;;30.43;37.39;100689.20;111031;1233;72176;31
2022/07/30 15:38:05;;;;;;;6.50;4.00;;;;;;;30.46;37.33;100686.45;110920;1233;57511;-77
2022/07/30 15:40:42;;;;;;;6.30;4.40;;;;;;;30.44;37.37;100681.42;110670;1235;60734;-83
2022/07/30 15:43:13;;;;;;;8.00;4.00;;;;;;;30.39;37.64;100676.95;111287;1234;62084;-83
2022/07/30 15:45:44;;;;;;;8.90;4.40;;;;;;;30.23;37.98;100673.11;110886;1230;61634;-81
2022/07/30 15:48:25;;;;;;;7.00;4.30;;;;;;;30.17;38.45;100675.48;110543;1236;69841;-81
2022/07/30 15:51:18;;;;;;;5.00;4.20;;;;;;;30.11;38.56;100672.13;111021;1230;62881;31
2022/07/30 15:54:23;;;;;;;5.80;4.00;;;;;;;30.12;38.87;100670.20;110910;1233;58640;31
2022/07/30 15:56:52;;;;;;;9.70;4.50;;;;;;;30.15;38.99;100668.54;111109;1233;59548;-83
2022/07/30 15:59:21;;;;;;;8.70;4.40;;;;;;;29.98;39.28;100659.10;111090;1231;62238;-81
2022/07/30 16:01:48;;;;;;;7.00;4.70;;;;;;;29.98;39.15;100655.86;110919;1233;71477;-77
2022/07/30 16:04:28;;;;;;;7.60;4.70;;;;;;;29.89;39.48;100659.56;110648;1234;60147;-80
2022/07/30 16:11:02;;;;;;;8.40;4.80;;;;;;;29.87;39.70;100663.23;111249;1233;58920;-82
2022/07/30 16:13:32;;;;;;;7.20;4.90;;;;;;;29.80;39.83;100665.70;110998;1234;58111;-83
2022/07/30 16:16:00;;;;;;;7.70;5.40;;;;;;;29.74;40.00;100663.84;110911;1236;71992;-81
2022/07/30 16:19:10;;;;;;;7.00;4.80;;;;;;;29.62;40.04;100662.41;111141;1233;71023;31
2022/07/30 16:21:38;;;;;;;7.70;4.90;;;;;;;29.60;40.34;100662.20;110897;1236;69764;-80
2022/07/30 16:24:59;;;;;;;6.80;4.90;;;;;;;29.66;40.12;100662.65;110864;1232;62822;31
2022/07/30 16:27:26;;;;;;;6.50;4.70;;;;;;;29.49;40.25;100665.41;110629;1238;60578;-81
2022/07/30 16:29:55;;;;;;;7.00;4.90;;;;;;;29.50;40.48;100667.23;110882;1235;60899;-82
2022/07/30 16:32:23;;;;;;;9.80;5.10;;;;;;;29.44;40.54;100668.20;111037;1234;72491;-80
2022/07/30 16:39:06;;;;;;;8.70;5.50;;;;;;;29.42;40.78;100674.65;111142;1232;70441;31
2022/07/30 17:04:51;;;;;;;11.90;6.30;;;;;;;29.24;41.67;100673.94;107562;1267;605336;-79
2022/07/30 17:11:16;;;;;;;6.10;4.50;;;;;;;28.89;42.63;100683.30;110609;1238;60917;-82
2022/07/30 17:29:54;;;;;;;8.10;5.40;;;;;;;28.39;44.04;100677.61;110906;1237;57596;-82